sensor_id;sensor_type;location;lat;lon;timestamp;P1;P2;P0
80800;PMS5003;70203;49.232;-123.018;2023-05-29T00:00:29;5;5;
80800;PMS5003;70203;49.232;-123.018;2023-05-29T00:02:54;6;5;
80800;PMS5003;70203;49.232;-123.018;2023-05-29T00:05:20;7;7;
80800;PMS5003;70203;49.232;-123.018;2023-05-29T00:07:45;13;10;
80800;PMS5003;70203;49.232;-123.018;2023-05-29T00:10:11;7;7;
80800;PMS5003;70203;49.232;-123.018;2023-05-29T00:12:37;10;6;
80800;PMS5003;70203;49.232;-123.018;2023-05-29T00:15:02;6;6;
80800;PMS5003;70203;49.232;-123.018;2023-05-29T00:17:28;8;5;
80800;PMS5003;70203;49.232;-123.018;2023-05-29T00:19:53;4;4;
80800;PMS5003;70203;49.232;-123.018;2023-05-29T00:22:19;6;6;
80800;PMS5003;70203;49.232;-123.018;2023-05-29T00:24:44;7;5;
80800;PMS5003;70203;49.232;-123.018;2023-05-29T00:27:10;8;8;
80800;PMS5003;70203;49.232;-123.018;2023-05-29T00:29:36;6;6;
80800;PMS5003;70203;49.232;-123.018;2023-05-29T00:32:01;6;6;
80800;PMS5003;70203;49.232;-123.018;2023-05-29T00:34:27;9;6;
80800;PMS5003;70203;49.232;-123.018;2023-05-29T00:36:52;6;5;
80800;PMS5003;70203;49.232;-123.018;2023-05-29T00:39:18;9;7;
80800;PMS5003;70203;49.232;-123.018;2023-05-29T00:41:44;6;6;
80800;PMS5003;70203;49.232;-123.018;2023-05-29T00:44:09;8;6;
80800;PMS5003;70203;49.232;-123.018;2023-05-29T00:46:35;7;6;
80800;PMS5003;70203;49.232;-123.018;2023-05-29T00:49:00;9;7;
80800;PMS5003;70203;49.232;-123.018;2023-05-29T00:51:26;10;9;
80800;PMS5003;70203;49.232;-123.018;2023-05-29T00:53:51;5;5;
80800;PMS5003;70203;49.232;-123.018;2023-05-29T00:56:17;5;5;
80800;PMS5003;70203;49.232;-123.018;2023-05-29T00:58:42;8;8;
80800;PMS5003;70203;49.232;-123.018;2023-05-29T01:01:07;12;11;
80800;PMS5003;70203;49.232;-123.018;2023-05-29T01:03:33;6;6;
80800;PMS5003;70203;49.232;-123.018;2023-05-29T01:05:58;7;7;
80800;PMS5003;70203;49.232;-123.018;2023-05-29T01:08:24;13;12;
80800;PMS5003;70203;49.232;-123.018;2023-05-29T01:10:50;10;10;
80800;PMS5003;70203;49.232;-123.018;2023-05-29T01:13:17;15;12;
80800;PMS5003;70203;49.232;-123.018;2023-05-29T01:15:43;22;18;
80800;PMS5003;70203;49.232;-123.018;2023-05-29T01:18:12;40;35;
80800;PMS5003;70203;49.232;-123.018;2023-05-29T01:20:33;43;41;
80800;PMS5003;70203;49.232;-123.018;2023-05-29T01:23:03;53;49;
80800;PMS5003;70203;49.232;-123.018;2023-05-29T01:25:24;69;59;
80800;PMS5003;70203;49.232;-123.018;2023-05-29T01:27:48;57;53;
80800;PMS5003;70203;49.232;-123.018;2023-05-29T01:30:14;71;67;
80800;PMS5003;70203;49.232;-123.018;2023-05-29T01:32:39;74;66;
80800;PMS5003;70203;49.232;-123.018;2023-05-29T01:35:05;75;68;
80800;PMS5003;70203;49.232;-123.018;2023-05-29T01:37:30;72;66;
80800;PMS5003;70203;49.232;-123.018;2023-05-29T01:39:56;82;71;
80800;PMS5003;70203;49.232;-123.018;2023-05-29T01:42:21;72;67;
80800;PMS5003;70203;49.232;-123.018;2023-05-29T01:44:46;66;65;
80800;PMS5003;70203;49.232;-123.018;2023-05-29T01:47:12;74;70;
80800;PMS5003;70203;49.232;-123.018;2023-05-29T01:49:37;83;74;
80800;PMS5003;70203;49.232;-123.018;2023-05-29T01:52:03;76;69;
80800;PMS5003;70203;49.232;-123.018;2023-05-29T01:54:28;79;67;
80800;PMS5003;70203;49.232;-123.018;2023-05-29T01:56:54;72;67;
80800;PMS5003;70203;49.232;-123.018;2023-05-29T01:59:19;69;66;
80800;PMS5003;70203;49.232;-123.018;2023-05-29T02:01:44;70;68;
80800;PMS5003;70203;49.232;-123.018;2023-05-29T02:04:09;77;66;
80800;PMS5003;70203;49.232;-123.018;2023-05-29T02:06:35;74;71;
80800;PMS5003;70203;49.232;-123.018;2023-05-29T02:09:00;71;63;
80800;PMS5003;70203;49.232;-123.018;2023-05-29T02:11:26;74;65;
80800;PMS5003;70203;49.232;-123.018;2023-05-29T02:13:51;65;59;
80800;PMS5003;70203;49.232;-123.018;2023-05-29T02:16:17;69;60;
80800;PMS5003;70203;49.232;-123.018;2023-05-29T02:18:42;72;58;
80800;PMS5003;70203;49.232;-123.018;2023-05-29T02:21:07;66;58;
80800;PMS5003;70203;49.232;-123.018;2023-05-29T02:23:33;61;56;
80800;PMS5003;70203;49.232;-123.018;2023-05-29T02:25:58;66;56;
80800;PMS5003;70203;49.232;-123.018;2023-05-29T02:28:23;59;52;
80800;PMS5003;70203;49.232;-123.018;2023-05-29T02:30:49;69;55;
80800;PMS5003;70203;49.232;-123.018;2023-05-29T02:33:14;52;51;
80800;PMS5003;70203;49.232;-123.018;2023-05-29T02:35:39;54;49;
80800;PMS5003;70203;49.232;-123.018;2023-05-29T02:38:05;51;50;
80800;PMS5003;70203;49.232;-123.018;2023-05-29T02:40:30;56;53;
80800;PMS5003;70203;49.232;-123.018;2023-05-29T02:42:56;53;49;
80800;PMS5003;70203;49.232;-123.018;2023-05-29T02:45:21;51;44;
80800;PMS5003;70203;49.232;-123.018;2023-05-29T02:47:47;47;43;
80800;PMS5003;70203;49.232;-123.018;2023-05-29T02:50:12;49;41;
80800;PMS5003;70203;49.232;-123.018;2023-05-29T02:52:38;49;43;
80800;PMS5003;70203;49.232;-123.018;2023-05-29T02:55:04;52;48;
80800;PMS5003;70203;49.232;-123.018;2023-05-29T02:57:29;51;45;
80800;PMS5003;70203;49.232;-123.018;2023-05-29T02:59:54;49;42;
80800;PMS5003;70203;49.232;-123.018;2023-05-29T03:02:20;52;41;
80800;PMS5003;70203;49.232;-123.018;2023-05-29T03:04:45;41;38;
80800;PMS5003;70203;49.232;-123.018;2023-05-29T03:07:11;44;42;
80800;PMS5003;70203;49.232;-123.018;2023-05-29T03:09:37;45;39;
80800;PMS5003;70203;49.232;-123.018;2023-05-29T03:12:02;33;28;
80800;PMS5003;70203;49.232;-123.018;2023-05-29T03:14:27;39;31;
80800;PMS5003;70203;49.232;-123.018;2023-05-29T03:16:52;39;36;
80800;PMS5003;70203;49.232;-123.018;2023-05-29T03:19:17;35;30;
80800;PMS5003;70203;49.232;-123.018;2023-05-29T03:21:43;38;32;
80800;PMS5003;70203;49.232;-123.018;2023-05-29T03:24:09;33;33;
80800;PMS5003;70203;49.232;-123.018;2023-05-29T03:26:34;31;29;
80800;PMS5003;70203;49.232;-123.018;2023-05-29T03:29:00;43;33;
80800;PMS5003;70203;49.232;-123.018;2023-05-29T03:31:25;31;30;
80800;PMS5003;70203;49.232;-123.018;2023-05-29T03:33:51;31;27;
80800;PMS5003;70203;49.232;-123.018;2023-05-29T03:36:16;33;31;
80800;PMS5003;70203;49.232;-123.018;2023-05-29T03:38:41;32;29;
80800;PMS5003;70203;49.232;-123.018;2023-05-29T03:41:07;33;30;
80800;PMS5003;70203;49.232;-123.018;2023-05-29T03:43:32;27;22;
80800;PMS5003;70203;49.232;-123.018;2023-05-29T03:45:57;33;28;
80800;PMS5003;70203;49.232;-123.018;2023-05-29T03:48:22;27;27;
80800;PMS5003;70203;49.232;-123.018;2023-05-29T03:50:49;26;24;
80800;PMS5003;70203;49.232;-123.018;2023-05-29T03:53:14;27;23;
80800;PMS5003;70203;49.232;-123.018;2023-05-29T03:55:39;27;22;
80800;PMS5003;70203;49.232;-123.018;2023-05-29T03:58:05;28;26;
80800;PMS5003;70203;49.232;-123.018;2023-05-29T04:00:31;25;23;
80800;PMS5003;70203;49.232;-123.018;2023-05-29T04:02:57;30;28;
80800;PMS5003;70203;49.232;-123.018;2023-05-29T04:05:22;27;24;
80800;PMS5003;70203;49.232;-123.018;2023-05-29T04:07:48;27;24;
80800;PMS5003;70203;49.232;-123.018;2023-05-29T04:10:13;25;19;
80800;PMS5003;70203;49.232;-123.018;2023-05-29T04:12:39;23;23;
80800;PMS5003;70203;49.232;-123.018;2023-05-29T04:15:05;22;20;
80800;PMS5003;70203;49.232;-123.018;2023-05-29T04:17:30;21;18;
80800;PMS5003;70203;49.232;-123.018;2023-05-29T04:19:55;22;21;
80800;PMS5003;70203;49.232;-123.018;2023-05-29T04:22:21;24;20;
80800;PMS5003;70203;49.232;-123.018;2023-05-29T04:24:46;28;25;
80800;PMS5003;70203;49.232;-123.018;2023-05-29T04:27:12;21;20;
80800;PMS5003;70203;49.232;-123.018;2023-05-29T04:29:37;23;23;
80800;PMS5003;70203;49.232;-123.018;2023-05-29T04:32:03;18;16;
80800;PMS5003;70203;49.232;-123.018;2023-05-29T04:34:28;23;19;
80800;PMS5003;70203;49.232;-123.018;2023-05-29T04:36:54;23;20;
80800;PMS5003;70203;49.232;-123.018;2023-05-29T04:39:19;18;18;
80800;PMS5003;70203;49.232;-123.018;2023-05-29T04:41:44;22;19;
80800;PMS5003;70203;49.232;-123.018;2023-05-29T04:44:10;17;17;
80800;PMS5003;70203;49.232;-123.018;2023-05-29T04:46:36;16;16;
80800;PMS5003;70203;49.232;-123.018;2023-05-29T04:49:01;19;18;
80800;PMS5003;70203;49.232;-123.018;2023-05-29T04:51:27;16;16;
80800;PMS5003;70203;49.232;-123.018;2023-05-29T04:53:52;19;18;
80800;PMS5003;70203;49.232;-123.018;2023-05-29T04:56:18;15;13;
80800;PMS5003;70203;49.232;-123.018;2023-05-29T04:58:43;17;17;
80800;PMS5003;70203;49.232;-123.018;2023-05-29T05:01:08;18;14;
80800;PMS5003;70203;49.232;-123.018;2023-05-29T05:03:34;15;14;
80800;PMS5003;70203;49.232;-123.018;2023-05-29T05:06:00;15;12;
80800;PMS5003;70203;49.232;-123.018;2023-05-29T05:08:25;11;11;
80800;PMS5003;70203;49.232;-123.018;2023-05-29T05:10:51;15;14;
80800;PMS5003;70203;49.232;-123.018;2023-05-29T05:13:16;12;10;
80800;PMS5003;70203;49.232;-123.018;2023-05-29T05:15:42;15;13;
80800;PMS5003;70203;49.232;-123.018;2023-05-29T05:18:07;14;13;
80800;PMS5003;70203;49.232;-123.018;2023-05-29T05:20:33;11;9;
80800;PMS5003;70203;49.232;-123.018;2023-05-29T05:22:59;10;9;
80800;PMS5003;70203;49.232;-123.018;2023-05-29T05:25:24;9;8;
80800;PMS5003;70203;49.232;-123.018;2023-05-29T05:27:49;10;10;
80800;PMS5003;70203;49.232;-123.018;2023-05-29T05:30:15;10;7;
80800;PMS5003;70203;49.232;-123.018;2023-05-29T05:32:40;9;9;
80800;PMS5003;70203;49.232;-123.018;2023-05-29T05:35:06;9;9;
80800;PMS5003;70203;49.232;-123.018;2023-05-29T05:37:31;5;5;
80800;PMS5003;70203;49.232;-123.018;2023-05-29T05:39:57;7;7;
80800;PMS5003;70203;49.232;-123.018;2023-05-29T05:42:22;9;8;
80800;PMS5003;70203;49.232;-123.018;2023-05-29T05:44:48;9;8;
80800;PMS5003;70203;49.232;-123.018;2023-05-29T05:47:13;7;7;
80800;PMS5003;70203;49.232;-123.018;2023-05-29T05:49:39;9;9;
80800;PMS5003;70203;49.232;-123.018;2023-05-29T05:52:04;6;6;
80800;PMS5003;70203;49.232;-123.018;2023-05-29T05:54:30;7;7;
80800;PMS5003;70203;49.232;-123.018;2023-05-29T05:56:55;8;8;
80800;PMS5003;70203;49.232;-123.018;2023-05-29T05:59:21;9;8;
80800;PMS5003;70203;49.232;-123.018;2023-05-29T06:01:46;12;9;
80800;PMS5003;70203;49.232;-123.018;2023-05-29T06:04:12;7;7;
80800;PMS5003;70203;49.232;-123.018;2023-05-29T06:06:37;7;7;
80800;PMS5003;70203;49.232;-123.018;2023-05-29T06:09:03;7;7;
80800;PMS5003;70203;49.232;-123.018;2023-05-29T06:11:28;6;6;
80800;PMS5003;70203;49.232;-123.018;2023-05-29T06:13:54;8;7;
80800;PMS5003;70203;49.232;-123.018;2023-05-29T06:16:19;9;8;
80800;PMS5003;70203;49.232;-123.018;2023-05-29T06:18:45;8;5;
80800;PMS5003;70203;49.232;-123.018;2023-05-29T06:21:11;9;8;
80800;PMS5003;70203;49.232;-123.018;2023-05-29T06:23:35;11;7;
80800;PMS5003;70203;49.232;-123.018;2023-05-29T06:26:01;12;9;
80800;PMS5003;70203;49.232;-123.018;2023-05-29T06:28:27;8;8;
80800;PMS5003;70203;49.232;-123.018;2023-05-29T06:30:52;10;9;
80800;PMS5003;70203;49.232;-123.018;2023-05-29T06:33:18;8;6;
80800;PMS5003;70203;49.232;-123.018;2023-05-29T06:35:44;11;9;
80800;PMS5003;70203;49.232;-123.018;2023-05-29T06:38:09;5;5;
80800;PMS5003;70203;49.232;-123.018;2023-05-29T06:40:35;8;8;
80800;PMS5003;70203;49.232;-123.018;2023-05-29T06:43:01;5;5;
80800;PMS5003;70203;49.232;-123.018;2023-05-29T06:45:26;7;7;
80800;PMS5003;70203;49.232;-123.018;2023-05-29T06:47:52;9;7;
80800;PMS5003;70203;49.232;-123.018;2023-05-29T06:50:17;8;6;
80800;PMS5003;70203;49.232;-123.018;2023-05-29T06:52:42;13;10;
80800;PMS5003;70203;49.232;-123.018;2023-05-29T06:55:08;8;8;
80800;PMS5003;70203;49.232;-123.018;2023-05-29T06:57:33;10;9;
80800;PMS5003;70203;49.232;-123.018;2023-05-29T06:59:58;8;8;
80800;PMS5003;70203;49.232;-123.018;2023-05-29T07:02:24;6;6;
80800;PMS5003;70203;49.232;-123.018;2023-05-29T07:04:50;8;7;
80800;PMS5003;70203;49.232;-123.018;2023-05-29T07:07:15;7;5;
80800;PMS5003;70203;49.232;-123.018;2023-05-29T07:09:41;7;6;
80800;PMS5003;70203;49.232;-123.018;2023-05-29T07:12:07;7;7;
80800;PMS5003;70203;49.232;-123.018;2023-05-29T07:14:32;5;5;
80800;PMS5003;70203;49.232;-123.018;2023-05-29T07:16:58;6;3;
80800;PMS5003;70203;49.232;-123.018;2023-05-29T07:19:23;9;8;
80800;PMS5003;70203;49.232;-123.018;2023-05-29T07:21:49;7;5;
80800;PMS5003;70203;49.232;-123.018;2023-05-29T07:24:15;7;7;
80800;PMS5003;70203;49.232;-123.018;2023-05-29T07:26:40;7;7;
80800;PMS5003;70203;49.232;-123.018;2023-05-29T07:29:05;11;10;
80800;PMS5003;70203;49.232;-123.018;2023-05-29T07:31:31;7;7;
80800;PMS5003;70203;49.232;-123.018;2023-05-29T07:33:56;7;6;
80800;PMS5003;70203;49.232;-123.018;2023-05-29T07:36:22;6;5;
80800;PMS5003;70203;49.232;-123.018;2023-05-29T07:38:48;5;5;
80800;PMS5003;70203;49.232;-123.018;2023-05-29T07:41:14;6;6;
80800;PMS5003;70203;49.232;-123.018;2023-05-29T07:43:39;8;5;
80800;PMS5003;70203;49.232;-123.018;2023-05-29T07:46:04;7;5;
80800;PMS5003;70203;49.232;-123.018;2023-05-29T07:48:30;8;6;
80800;PMS5003;70203;49.232;-123.018;2023-05-29T07:50:56;9;6;
80800;PMS5003;70203;49.232;-123.018;2023-05-29T07:53:21;8;5;
80800;PMS5003;70203;49.232;-123.018;2023-05-29T07:55:47;5;5;
80800;PMS5003;70203;49.232;-123.018;2023-05-29T07:58:12;6;5;
80800;PMS5003;70203;49.232;-123.018;2023-05-29T08:00:38;5;5;
80800;PMS5003;70203;49.232;-123.018;2023-05-29T08:03:03;7;6;
80800;PMS5003;70203;49.232;-123.018;2023-05-29T08:05:29;5;5;
80800;PMS5003;70203;49.232;-123.018;2023-05-29T08:07:54;5;5;
80800;PMS5003;70203;49.232;-123.018;2023-05-29T08:10:19;6;6;
80800;PMS5003;70203;49.232;-123.018;2023-05-29T08:12:45;5;4;
80800;PMS5003;70203;49.232;-123.018;2023-05-29T08:15:11;10;8;
80800;PMS5003;70203;49.232;-123.018;2023-05-29T08:17:36;6;5;
80800;PMS5003;70203;49.232;-123.018;2023-05-29T08:20:02;10;8;
80800;PMS5003;70203;49.232;-123.018;2023-05-29T08:22:28;6;6;
80800;PMS5003;70203;49.232;-123.018;2023-05-29T08:24:53;11;7;
80800;PMS5003;70203;49.232;-123.018;2023-05-29T08:27:18;10;9;
80800;PMS5003;70203;49.232;-123.018;2023-05-29T08:29:44;6;6;
80800;PMS5003;70203;49.232;-123.018;2023-05-29T08:32:09;8;7;
80800;PMS5003;70203;49.232;-123.018;2023-05-29T08:34:35;7;6;
80800;PMS5003;70203;49.232;-123.018;2023-05-29T08:37:00;8;7;
80800;PMS5003;70203;49.232;-123.018;2023-05-29T08:39:26;7;7;
80800;PMS5003;70203;49.232;-123.018;2023-05-29T08:41:54;7;7;
80800;PMS5003;70203;49.232;-123.018;2023-05-29T08:44:17;5;5;
80800;PMS5003;70203;49.232;-123.018;2023-05-29T08:46:42;6;5;
80800;PMS5003;70203;49.232;-123.018;2023-05-29T08:49:08;13;11;
80800;PMS5003;70203;49.232;-123.018;2023-05-29T08:51:35;8;6;
80800;PMS5003;70203;49.232;-123.018;2023-05-29T08:53:59;6;6;
80800;PMS5003;70203;49.232;-123.018;2023-05-29T08:56:24;5;5;
80800;PMS5003;70203;49.232;-123.018;2023-05-29T08:58:50;4;4;
80800;PMS5003;70203;49.232;-123.018;2023-05-29T09:01:16;9;6;
80800;PMS5003;70203;49.232;-123.018;2023-05-29T09:03:41;5;5;
80800;PMS5003;70203;49.232;-123.018;2023-05-29T09:06:07;6;6;
80800;PMS5003;70203;49.232;-123.018;2023-05-29T09:08:32;8;5;
80800;PMS5003;70203;49.232;-123.018;2023-05-29T09:10:58;8;6;
80800;PMS5003;70203;49.232;-123.018;2023-05-29T09:13:23;6;4;
80800;PMS5003;70203;49.232;-123.018;2023-05-29T09:15:49;8;6;
80800;PMS5003;70203;49.232;-123.018;2023-05-29T09:18:16;4;4;
80800;PMS5003;70203;49.232;-123.018;2023-05-29T09:20:40;3;3;
80800;PMS5003;70203;49.232;-123.018;2023-05-29T09:23:06;6;6;
80800;PMS5003;70203;49.232;-123.018;2023-05-29T09:25:32;7;7;
80800;PMS5003;70203;49.232;-123.018;2023-05-29T09:27:58;6;5;
80800;PMS5003;70203;49.232;-123.018;2023-05-29T09:30:38;4;4;
80800;PMS5003;70203;49.232;-123.018;2023-05-29T09:32:49;6;6;
80800;PMS5003;70203;49.232;-123.018;2023-05-29T09:35:14;10;7;
80800;PMS5003;70203;49.232;-123.018;2023-05-29T09:37:41;6;4;
80800;PMS5003;70203;49.232;-123.018;2023-05-29T09:40:06;9;9;
80800;PMS5003;70203;49.232;-123.018;2023-05-29T09:42:30;9;7;
80800;PMS5003;70203;49.232;-123.018;2023-05-29T09:44:56;8;5;
80800;PMS5003;70203;49.232;-123.018;2023-05-29T09:47:22;6;6;
80800;PMS5003;70203;49.232;-123.018;2023-05-29T09:49:47;5;5;
80800;PMS5003;70203;49.232;-123.018;2023-05-29T09:52:13;6;6;
80800;PMS5003;70203;49.232;-123.018;2023-05-29T09:54:38;5;5;
80800;PMS5003;70203;49.232;-123.018;2023-05-29T09:57:04;4;4;
80800;PMS5003;70203;49.232;-123.018;2023-05-29T09:59:29;7;5;
80800;PMS5003;70203;49.232;-123.018;2023-05-29T10:01:59;4;3;
80800;PMS5003;70203;49.232;-123.018;2023-05-29T10:04:20;7;5;
80800;PMS5003;70203;49.232;-123.018;2023-05-29T10:06:46;5;5;
80800;PMS5003;70203;49.232;-123.018;2023-05-29T10:09:12;4;4;
80800;PMS5003;70203;49.232;-123.018;2023-05-29T10:11:38;3;3;
80800;PMS5003;70203;49.232;-123.018;2023-05-29T10:14:03;6;5;
80800;PMS5003;70203;49.232;-123.018;2023-05-29T10:16:28;3;3;
80800;PMS5003;70203;49.232;-123.018;2023-05-29T10:18:54;7;6;
80800;PMS5003;70203;49.232;-123.018;2023-05-29T10:21:19;6;5;
80800;PMS5003;70203;49.232;-123.018;2023-05-29T10:23:46;8;8;
80800;PMS5003;70203;49.232;-123.018;2023-05-29T10:26:12;5;5;
80800;PMS5003;70203;49.232;-123.018;2023-05-29T10:28:36;3;3;
80800;PMS5003;70203;49.232;-123.018;2023-05-29T10:31:03;4;4;
80800;PMS5003;70203;49.232;-123.018;2023-05-29T10:33:31;4;4;
80800;PMS5003;70203;49.232;-123.018;2023-05-29T10:35:54;5;5;
80800;PMS5003;70203;49.232;-123.018;2023-05-29T10:38:18;5;4;
80800;PMS5003;70203;49.232;-123.018;2023-05-29T10:40:44;5;5;
80800;PMS5003;70203;49.232;-123.018;2023-05-29T10:43:15;5;4;
80800;PMS5003;70203;49.232;-123.018;2023-05-29T10:45:53;4;4;
80800;PMS5003;70203;49.232;-123.018;2023-05-29T10:48:35;3;3;
80800;PMS5003;70203;49.232;-123.018;2023-05-29T10:50:35;5;5;
80800;PMS5003;70203;49.232;-123.018;2023-05-29T10:52:52;5;5;
80800;PMS5003;70203;49.232;-123.018;2023-05-29T10:55:17;6;5;
80800;PMS5003;70203;49.232;-123.018;2023-05-29T10:57:46;6;5;
80800;PMS5003;70203;49.232;-123.018;2023-05-29T11:00:09;4;4;
80800;PMS5003;70203;49.232;-123.018;2023-05-29T11:02:36;4;4;
80800;PMS5003;70203;49.232;-123.018;2023-05-29T11:05:04;3;3;
80800;PMS5003;70203;49.232;-123.018;2023-05-29T11:07:32;2;2;
80800;PMS5003;70203;49.232;-123.018;2023-05-29T11:09:51;3;3;
80800;PMS5003;70203;49.232;-123.018;2023-05-29T11:12:20;3;3;
80800;PMS5003;70203;49.232;-123.018;2023-05-29T11:14:46;6;6;
80800;PMS5003;70203;49.232;-123.018;2023-05-29T11:17:07;5;4;
80800;PMS5003;70203;49.232;-123.018;2023-05-29T11:19:33;6;5;
80800;PMS5003;70203;49.232;-123.018;2023-05-29T11:22:01;6;4;
80800;PMS5003;70203;49.232;-123.018;2023-05-29T11:24:25;1;1;
80800;PMS5003;70203;49.232;-123.018;2023-05-29T11:26:50;3;3;
80800;PMS5003;70203;49.232;-123.018;2023-05-29T11:29:15;6;2;
80800;PMS5003;70203;49.232;-123.018;2023-05-29T11:31:41;4;4;
80800;PMS5003;70203;49.232;-123.018;2023-05-29T11:34:09;4;4;
80800;PMS5003;70203;49.232;-123.018;2023-05-29T11:36:32;2;2;
80800;PMS5003;70203;49.232;-123.018;2023-05-29T11:38:58;5;4;
80800;PMS5003;70203;49.232;-123.018;2023-05-29T11:41:23;4;3;
80800;PMS5003;70203;49.232;-123.018;2023-05-29T11:43:57;4;2;
80800;PMS5003;70203;49.232;-123.018;2023-05-29T11:46:16;5;3;
80800;PMS5003;70203;49.232;-123.018;2023-05-29T11:48:44;4;4;
80800;PMS5003;70203;49.232;-123.018;2023-05-29T11:51:06;3;3;
80800;PMS5003;70203;49.232;-123.018;2023-05-29T11:53:31;3;2;
80800;PMS5003;70203;49.232;-123.018;2023-05-29T11:56:05;5;4;
80800;PMS5003;70203;49.232;-123.018;2023-05-29T11:58:22;4;4;
80800;PMS5003;70203;49.232;-123.018;2023-05-29T12:00:48;3;2;
80800;PMS5003;70203;49.232;-123.018;2023-05-29T12:03:13;4;4;
80800;PMS5003;70203;49.232;-123.018;2023-05-29T12:05:47;5;4;
80800;PMS5003;70203;49.232;-123.018;2023-05-29T12:08:05;3;3;
80800;PMS5003;70203;49.232;-123.018;2023-05-29T12:10:30;5;5;
80800;PMS5003;70203;49.232;-123.018;2023-05-29T12:12:57;4;4;
80800;PMS5003;70203;49.232;-123.018;2023-05-29T12:15:22;5;3;
80800;PMS5003;70203;49.232;-123.018;2023-05-29T12:17:47;3;3;
80800;PMS5003;70203;49.232;-123.018;2023-05-29T12:20:13;2;2;
80800;PMS5003;70203;49.232;-123.018;2023-05-29T12:22:39;5;3;
80800;PMS5003;70203;49.232;-123.018;2023-05-29T12:25:05;3;3;
80800;PMS5003;70203;49.232;-123.018;2023-05-29T12:27:29;2;2;
80800;PMS5003;70203;49.232;-123.018;2023-05-29T12:29:59;2;2;
80800;PMS5003;70203;49.232;-123.018;2023-05-29T12:32:20;4;4;
80800;PMS5003;70203;49.232;-123.018;2023-05-29T12:34:48;5;4;
80800;PMS5003;70203;49.232;-123.018;2023-05-29T12:37:11;2;2;
80800;PMS5003;70203;49.232;-123.018;2023-05-29T12:39:37;5;3;
80800;PMS5003;70203;49.232;-123.018;2023-05-29T12:42:03;4;4;
80800;PMS5003;70203;49.232;-123.018;2023-05-29T12:44:29;3;3;
80800;PMS5003;70203;49.232;-123.018;2023-05-29T12:46:56;4;4;
80800;PMS5003;70203;49.232;-123.018;2023-05-29T12:49:19;4;2;
80800;PMS5003;70203;49.232;-123.018;2023-05-29T12:51:45;4;2;
80800;PMS5003;70203;49.232;-123.018;2023-05-29T12:54:10;4;3;
80800;PMS5003;70203;49.232;-123.018;2023-05-29T12:56:36;4;3;
80800;PMS5003;70203;49.232;-123.018;2023-05-29T12:59:02;3;3;
80800;PMS5003;70203;49.232;-123.018;2023-05-29T13:01:27;4;4;
80800;PMS5003;70203;49.232;-123.018;2023-05-29T13:03:53;3;3;
80800;PMS5003;70203;49.232;-123.018;2023-05-29T13:06:18;6;5;
80800;PMS5003;70203;49.232;-123.018;2023-05-29T13:08:44;3;3;
80800;PMS5003;70203;49.232;-123.018;2023-05-29T13:11:09;4;4;
80800;PMS5003;70203;49.232;-123.018;2023-05-29T13:13:35;3;3;
80800;PMS5003;70203;49.232;-123.018;2023-05-29T13:16:01;4;4;
80800;PMS5003;70203;49.232;-123.018;2023-05-29T13:18:26;5;3;
80800;PMS5003;70203;49.232;-123.018;2023-05-29T13:20:52;4;4;
80800;PMS5003;70203;49.232;-123.018;2023-05-29T13:23:17;4;4;
80800;PMS5003;70203;49.232;-123.018;2023-05-29T13:25:43;3;3;
80800;PMS5003;70203;49.232;-123.018;2023-05-29T13:28:08;4;2;
80800;PMS5003;70203;49.232;-123.018;2023-05-29T13:30:34;3;3;
80800;PMS5003;70203;49.232;-123.018;2023-05-29T13:32:59;3;3;
80800;PMS5003;70203;49.232;-123.018;2023-05-29T13:35:25;4;4;
80800;PMS5003;70203;49.232;-123.018;2023-05-29T13:37:51;4;3;
80800;PMS5003;70203;49.232;-123.018;2023-05-29T13:40:16;4;4;
80800;PMS5003;70203;49.232;-123.018;2023-05-29T13:42:42;3;3;
80800;PMS5003;70203;49.232;-123.018;2023-05-29T13:45:07;4;4;
80800;PMS5003;70203;49.232;-123.018;2023-05-29T13:47:33;4;4;
80800;PMS5003;70203;49.232;-123.018;2023-05-29T13:49:58;4;2;
80800;PMS5003;70203;49.232;-123.018;2023-05-29T13:52:24;5;3;
80800;PMS5003;70203;49.232;-123.018;2023-05-29T13:54:49;2;2;
80800;PMS5003;70203;49.232;-123.018;2023-05-29T13:57:15;3;2;
80800;PMS5003;70203;49.232;-123.018;2023-05-29T13:59:40;4;4;
80800;PMS5003;70203;49.232;-123.018;2023-05-29T14:02:06;4;3;
80800;PMS5003;70203;49.232;-123.018;2023-05-29T14:04:31;6;6;
80800;PMS5003;70203;49.232;-123.018;2023-05-29T14:06:56;3;3;
80800;PMS5003;70203;49.232;-123.018;2023-05-29T14:09:22;3;2;
80800;PMS5003;70203;49.232;-123.018;2023-05-29T14:11:47;3;3;
80800;PMS5003;70203;49.232;-123.018;2023-05-29T14:14:13;3;2;
80800;PMS5003;70203;49.232;-123.018;2023-05-29T14:16:38;4;3;
80800;PMS5003;70203;49.232;-123.018;2023-05-29T14:19:04;5;3;
80800;PMS5003;70203;49.232;-123.018;2023-05-29T14:21:29;1;1;
80800;PMS5003;70203;49.232;-123.018;2023-05-29T14:23:55;5;3;
80800;PMS5003;70203;49.232;-123.018;2023-05-29T14:26:20;5;3;
80800;PMS5003;70203;49.232;-123.018;2023-05-29T14:28:46;2;2;
80800;PMS5003;70203;49.232;-123.018;2023-05-29T14:31:11;4;4;
80800;PMS5003;70203;49.232;-123.018;2023-05-29T14:33:37;7;4;
80800;PMS5003;70203;49.232;-123.018;2023-05-29T14:36:02;3;3;
80800;PMS5003;70203;49.232;-123.018;2023-05-29T14:38:28;4;4;
80800;PMS5003;70203;49.232;-123.018;2023-05-29T14:40:53;4;4;
80800;PMS5003;70203;49.232;-123.018;2023-05-29T14:43:19;2;2;
80800;PMS5003;70203;49.232;-123.018;2023-05-29T14:45:44;1;1;
80800;PMS5003;70203;49.232;-123.018;2023-05-29T14:48:10;4;2;
80800;PMS5003;70203;49.232;-123.018;2023-05-29T14:50:35;4;3;
80800;PMS5003;70203;49.232;-123.018;2023-05-29T14:53:01;3;3;
80800;PMS5003;70203;49.232;-123.018;2023-05-29T14:55:26;2;2;
80800;PMS5003;70203;49.232;-123.018;2023-05-29T14:57:51;1;1;
80800;PMS5003;70203;49.232;-123.018;2023-05-29T15:00:17;7;5;
80800;PMS5003;70203;49.232;-123.018;2023-05-29T15:02:42;9;4;
80800;PMS5003;70203;49.232;-123.018;2023-05-29T15:05:07;5;5;
80800;PMS5003;70203;49.232;-123.018;2023-05-29T15:07:33;6;3;
80800;PMS5003;70203;49.232;-123.018;2023-05-29T15:09:58;7;6;
80800;PMS5003;70203;49.232;-123.018;2023-05-29T15:12:24;8;6;
80800;PMS5003;70203;49.232;-123.018;2023-05-29T15:14:49;4;4;
80800;PMS5003;70203;49.232;-123.018;2023-05-29T15:17:15;7;6;
80800;PMS5003;70203;49.232;-123.018;2023-05-29T15:19:40;5;3;
80800;PMS5003;70203;49.232;-123.018;2023-05-29T15:22:06;4;4;
80800;PMS5003;70203;49.232;-123.018;2023-05-29T15:24:31;6;5;
80800;PMS5003;70203;49.232;-123.018;2023-05-29T15:26:57;5;3;
80800;PMS5003;70203;49.232;-123.018;2023-05-29T15:29:22;6;6;
80800;PMS5003;70203;49.232;-123.018;2023-05-29T15:31:48;5;5;
80800;PMS5003;70203;49.232;-123.018;2023-05-29T15:34:13;4;4;
80800;PMS5003;70203;49.232;-123.018;2023-05-29T15:36:39;3;3;
80800;PMS5003;70203;49.232;-123.018;2023-05-29T15:39:04;5;5;